Time;durP1;ratioP1;P1;durP2;ratioP2;P2;SDS_P1;SDS_P2;PMS_P1;PMS_P2;Temp;Humidity;BMP_temperature;BMP_pressure;BME280_temperature;BME280_humidity;BME280_pressure;Samples;Min_cycle;Max_cycle;Signal;HPM_P1;HPM_P2
2023/05/02 00:00:48;;;;;;;5.90;5.40;;;;;;;13.91;62.81;97558.69;5036960;28;20195;-70
2023/05/02 00:03:15;;;;;;;6.20;5.60;;;;;;;13.85;62.63;97554.09;5030098;28;20215;-70
2023/05/02 00:05:41;;;;;;;13.00;5.80;;;;;;;13.87;62.82;97557.38;5034959;28;20179;-69
2023/05/02 00:08:06;;;;;;;5.30;4.80;;;;;;;13.87;62.80;97551.28;5030004;28;20489;-70
2023/05/02 00:10:32;;;;;;;7.77;6.10;;;;;;;13.82;63.06;97549.16;5027763;28;20183;-70
2023/05/02 00:12:57;;;;;;;6.80;6.07;;;;;;;13.87;62.93;97554.72;5030217;28;20211;-69
2023/05/02 00:15:23;;;;;;;5.87;5.37;;;;;;;13.84;63.25;97547.19;5033105;28;20188;-70
2023/05/02 00:17:48;;;;;;;6.60;6.00;;;;;;;13.86;62.96;97545.19;5029496;28;20207;-70
2023/05/02 00:20:14;;;;;;;6.23;5.63;;;;;;;13.87;63.01;97548.66;5029522;28;20270;-69
2023/05/02 00:22:39;;;;;;;7.90;5.57;;;;;;;13.89;63.15;97552.75;5029574;28;20230;-70
2023/05/02 00:25:06;;;;;;;6.20;5.60;;;;;;;13.88;62.79;97542.38;5040645;28;20816;-70
2023/05/02 00:27:32;;;;;;;5.93;5.43;;;;;;;13.87;62.90;97546.00;5028670;28;20291;-69
2023/05/02 00:29:59;;;;;;;8.13;5.43;;;;;;;13.77;62.60;97541.75;5034675;28;20488;-70
2023/05/02 00:32:24;;;;;;;6.53;5.83;;;;;;;13.78;62.88;97546.03;5030770;28;20521;-70
2023/05/02 00:34:50;;;;;;;6.40;5.77;;;;;;;13.78;62.57;97546.03;5036015;28;20979;-70
2023/05/02 00:37:15;;;;;;;6.87;6.17;;;;;;;13.69;62.88;97549.63;5028980;28;20724;-70
2023/05/02 00:39:41;;;;;;;6.23;5.73;;;;;;;13.66;62.76;97545.50;5028036;28;20598;-68
2023/05/02 00:42:06;;;;;;;6.90;5.97;;;;;;;13.57;63.17;97550.91;5029290;28;20198;-71
2023/05/02 00:44:32;;;;;;;8.40;6.10;;;;;;;13.57;63.37;97546.50;5032440;28;20207;-71
2023/05/02 00:46:57;;;;;;;10.73;6.27;;;;;;;13.58;63.05;97542.88;5029384;28;20206;-70
2023/05/02 00:49:23;;;;;;;9.50;5.90;;;;;;;13.58;63.33;97544.69;5028153;28;20226;-70
2023/05/02 00:51:49;;;;;;;6.80;6.17;;;;;;;13.58;63.10;97540.25;5029077;28;20195;-71
2023/05/02 00:54:14;;;;;;;6.23;5.47;;;;;;;13.55;63.10;97547.63;5028383;28;20279;-70
2023/05/02 00:56:39;;;;;;;6.10;5.60;;;;;;;13.56;62.82;97552.75;5036888;28;20204;-70
2023/05/02 00:59:06;;;;;;;6.23;5.63;;;;;;;13.57;62.75;97546.50;5036586;28;20318;-73
2023/05/02 01:02:03;;;;;;;5.90;5.40;;;;;;;13.55;62.70;97559.00;5027413;28;20184;-70
2023/05/02 01:05:00;;;;;;;6.40;5.27;;;;;;;13.49;62.64;97557.84;5029561;28;20416;-71
2023/05/02 01:07:37;;;;;;;6.23;5.63;;;;;;;13.45;62.98;97559.13;5032109;28;20513;-70
2023/05/02 01:10:24;;;;;;;6.10;5.50;;;;;;;13.39;62.80;97561.56;5010745;28;21024;-69
2023/05/02 01:13:02;;;;;;;6.30;5.60;;;;;;;13.42;63.16;97561.28;5028655;28;20422;-70
2023/05/02 01:15:29;;;;;;;6.80;5.50;;;;;;;13.50;62.91;97561.28;5030778;28;20430;-71
2023/05/02 01:17:55;;;;;;;6.97;5.43;;;;;;;13.41;62.88;97559.63;5029998;28;20484;-70
2023/05/02 01:20:24;;;;;;;10.83;8.70;;;;;;;13.50;62.99;97567.38;5036380;28;20444;-71
2023/05/02 01:22:50;;;;;;;8.50;6.53;;;;;;;13.50;63.06;97569.19;5036162;28;20423;-71
2023/05/02 01:25:15;;;;;;;9.03;7.10;;;;;;;13.52;62.89;97569.84;5052718;28;20423;-70
2023/05/02 01:27:44;;;;;;;8.43;6.43;;;;;;;13.49;62.82;97568.38;5037364;28;21099;-68
2023/05/02 01:30:10;;;;;;;6.77;6.17;;;;;;;13.44;63.04;97570.66;5042959;28;20628;-69
2023/05/02 01:32:38;;;;;;;6.57;5.97;;;;;;;13.47;63.30;97572.97;5044035;28;21080;-69
2023/05/02 01:35:04;;;;;;;6.30;5.70;;;;;;;13.50;63.20;97570.03;5031344;28;20433;-71
2023/05/02 01:37:32;;;;;;;7.13;6.43;;;;;;;13.47;62.67;97567.69;5029153;28;20873;-71
2023/05/02 01:39:59;;;;;;;6.97;6.37;;;;;;;13.50;63.03;97569.19;5039842;28;21049;-70
2023/05/02 01:42:25;;;;;;;7.40;6.70;;;;;;;13.49;63.01;97564.91;5037655;28;20562;-69
2023/05/02 01:44:53;;;;;;;7.00;6.20;;;;;;;13.33;63.07;97570.94;5035655;28;20565;-69
2023/05/02 01:47:20;;;;;;;7.37;6.63;;;;;;;13.33;63.32;97577.03;5032553;28;20515;-71
2023/05/02 01:49:45;;;;;;;14.13;6.20;;;;;;;13.39;63.57;97570.31;5033322;28;20512;-70
2023/05/02 01:52:12;;;;;;;8.10;6.50;;;;;;;13.42;62.98;97579.72;5042377;28;20517;-68
2023/05/02 01:54:37;;;;;;;7.33;6.63;;;;;;;13.22;63.60;97569.44;5029818;28;20191;-70
2023/05/02 01:57:05;;;;;;;7.43;6.73;;;;;;;13.29;63.21;97574.88;5037386;28;20549;-69
2023/05/02 01:59:32;;;;;;;6.23;5.73;;;;;;;13.34;63.14;97577.84;5037668;28;20249;-69
2023/05/02 02:01:58;;;;;;;7.00;6.30;;;;;;;13.36;63.26;97573.25;5036807;28;20421;-69
2023/05/02 02:04:25;;;;;;;6.60;6.00;;;;;;;13.33;62.75;97577.03;5035633;28;20435;-70
2023/05/02 02:06:56;;;;;;;7.87;6.47;;;;;;;13.36;62.75;97579.31;5030274;28;20548;-70
2023/05/02 02:09:21;;;;;;;8.40;6.33;;;;;;;13.40;62.88;97579.03;5035539;28;20464;-70
2023/05/02 02:12:02;;;;;;;7.07;6.40;;;;;;;13.39;62.88;97572.09;5035193;28;20418;-70
2023/05/02 02:14:51;;;;;;;7.80;6.37;;;;;;;13.36;62.54;97581.16;5035658;28;20649;-70
2023/05/02 02:17:24;;;;;;;7.03;6.43;;;;;;;13.35;62.58;97582.97;5028887;28;20844;-72
2023/05/02 02:19:52;;;;;;;8.33;5.97;;;;;;;13.29;62.80;97593.31;5032868;28;20423;-70
2023/05/02 02:22:19;;;;;;;11.87;9.50;;;;;;;13.31;62.50;97600.06;5031354;28;20491;-70
2023/05/02 02:24:45;;;;;;;9.00;8.10;;;;;;;13.35;62.78;97601.41;5046381;28;20444;-69
2023/05/02 02:27:10;;;;;;;7.60;6.90;;;;;;;13.34;62.57;97602.38;5024526;28;20430;-68
2023/05/02 02:29:36;;;;;;;8.80;6.47;;;;;;;13.27;62.54;97601.34;5032376;28;20434;-69
2023/05/02 02:32:01;;;;;;;7.83;7.03;;;;;;;13.20;62.50;97601.16;5040394;28;20595;-68
2023/05/02 02:34:27;;;;;;;7.53;6.60;;;;;;;13.20;62.06;97606.44;5030633;28;20195;-71
2023/05/02 02:37:00;;;;;;;12.13;6.50;;;;;;;13.14;62.20;97611.50;5031958;28;20204;-70
2023/05/02 02:39:49;;;;;;;6.77;6.10;;;;;;;13.12;62.27;97613.47;5034588;28;20219;-70
2023/05/02 02:42:21;;;;;;;6.90;6.30;;;;;;;13.06;62.30;97615.75;5030390;28;20452;-71
2023/05/02 02:45:14;;;;;;;11.93;6.63;;;;;;;13.05;62.40;97613.25;5017697;28;20446;-71
2023/05/02 02:47:49;;;;;;;6.90;6.30;;;;;;;12.97;62.58;97621.97;5035872;28;20806;-71
2023/05/02 02:50:20;;;;;;;6.70;6.00;;;;;;;12.94;62.37;97619.66;5030507;28;20509;-71
2023/05/02 02:52:47;;;;;;;8.70;6.50;;;;;;;12.96;62.57;97622.13;5031741;28;21140;-71
2023/05/02 02:55:24;;;;;;;8.87;7.70;;;;;;;12.86;62.63;97627.47;5044824;28;20437;-71
2023/05/02 02:58:06;;;;;;;10.00;6.80;;;;;;;12.78;62.84;97619.56;5030001;28;20454;-71
2023/05/02 03:00:33;;;;;;;8.43;7.60;;;;;;;12.79;62.63;97631.72;5026261;28;21001;-71
2023/05/02 03:02:59;;;;;;;8.63;7.77;;;;;;;12.78;62.39;97635.34;5024506;28;20607;-71
2023/05/02 03:05:24;;;;;;;9.63;8.63;;;;;;;12.83;62.71;97640.97;5015388;28;20476;-71
2023/05/02 03:07:50;;;;;;;11.40;8.27;;;;;;;12.88;62.92;97650.03;5022012;28;20214;-71
2023/05/02 03:10:15;;;;;;;10.60;9.17;;;;;;;12.88;63.16;97644.78;5032720;28;20231;-71
2023/05/02 03:12:42;;;;;;;12.60;10.20;;;;;;;12.96;63.47;97658.94;5033713;28;20250;-71
2023/05/02 03:15:17;;;;;;;9.50;8.50;;;;;;;12.94;63.34;97653.84;5037828;28;20187;-71
2023/05/02 03:17:42;;;;;;;8.03;7.27;;;;;;;12.91;63.25;97654.16;5023871;28;20492;-71
2023/05/02 03:20:08;;;;;;;7.50;6.80;;;;;;;12.86;63.07;97654.63;5028646;28;20442;-71
2023/05/02 03:22:33;;;;;;;7.90;6.93;;;;;;;12.84;63.56;97658.41;5028897;28;20190;-70
2023/05/02 03:24:59;;;;;;;7.57;6.80;;;;;;;12.80;63.52;97659.69;5039541;28;20219;-70
2023/05/02 03:27:24;;;;;;;7.00;6.30;;;;;;;12.81;63.64;97666.59;5040326;28;20893;-71
2023/05/02 03:29:50;;;;;;;11.80;6.77;;;;;;;12.84;63.64;97661.84;5037915;28;20191;-72
2023/05/02 03:32:15;;;;;;;8.90;6.80;;;;;;;12.84;63.56;97663.66;5037440;28;20283;-71
2023/05/02 03:34:41;;;;;;;8.10;7.00;;;;;;;12.83;63.40;97667.28;5032211;28;20229;-71
2023/05/02 03:37:06;;;;;;;6.90;6.20;;;;;;;12.84;63.73;97671.56;5035078;28;20215;-69
2023/05/02 03:39:31;;;;;;;7.67;6.90;;;;;;;12.89;64.02;97671.91;5038768;28;20217;-70
2023/05/02 03:41:57;;;;;;;10.17;6.90;;;;;;;12.89;63.86;97677.16;5040209;28;20740;-70
2023/05/02 03:44:22;;;;;;;7.47;6.67;;;;;;;12.92;63.44;97684.75;5035046;28;20187;-69
2023/05/02 03:46:48;;;;;;;9.37;7.30;;;;;;;12.93;63.75;97681.13;5033681;28;20327;-70
2023/05/02 03:49:13;;;;;;;8.20;7.00;;;;;;;12.92;63.81;97687.38;5035872;28;20230;-70
2023/05/02 03:51:39;;;;;;;8.80;7.20;;;;;;;12.96;63.70;97693.16;5032978;28;20191;-68
2023/05/02 03:54:04;;;;;;;9.57;6.77;;;;;;;12.95;64.16;97689.69;5042876;28;20191;-69
2023/05/02 03:56:30;;;;;;;7.00;6.33;;;;;;;12.96;64.00;97694.00;5027858;28;20716;-70
2023/05/02 03:58:55;;;;;;;7.23;6.53;;;;;;;12.99;64.16;97706.81;5034294;28;20203;-70
2023/05/02 04:01:21;;;;;;;9.20;6.83;;;;;;;13.03;64.11;97702.91;5038045;28;20201;-71
2023/05/02 04:03:46;;;;;;;11.00;9.00;;;;;;;13.03;64.22;97708.16;5035998;28;20192;-71
2023/05/02 04:06:12;;;;;;;13.00;8.17;;;;;;;13.00;63.57;97711.09;5029942;28;20263;-70
2023/05/02 04:08:37;;;;;;;17.27;9.90;;;;;;;13.02;64.19;97711.78;5028255;28;20206;-71
2023/05/02 04:11:03;;;;;;;10.10;8.10;;;;;;;13.02;64.46;97703.88;5042613;28;20727;-71
2023/05/02 04:13:28;;;;;;;7.70;6.90;;;;;;;13.10;64.11;97710.19;5031062;28;20199;-71
2023/05/02 04:15:54;;;;;;;10.83;7.47;;;;;;;13.12;64.50;97716.09;5042064;28;20294;-70
2023/05/02 04:18:19;;;;;;;8.23;7.30;;;;;;;13.13;64.63;97712.47;5035886;28;20573;-70
2023/05/02 04:20:45;;;;;;;7.77;7.07;;;;;;;13.10;64.59;97718.88;5034314;28;20194;-71
2023/05/02 04:23:10;;;;;;;9.37;7.50;;;;;;;13.15;64.90;97721.03;5036337;28;20199;-71
2023/05/02 04:25:35;;;;;;;8.13;7.33;;;;;;;13.15;65.06;97716.63;5042081;28;20252;-68
2023/05/02 04:28:01;;;;;;;8.70;7.17;;;;;;;13.18;64.63;97721.56;5042076;28;20330;-70
2023/05/02 04:30:27;;;;;;;8.10;7.00;;;;;;;13.22;64.66;97724.72;5032633;28;20225;-71
2023/05/02 04:32:52;;;;;;;9.13;7.43;;;;;;;13.24;64.78;97732.44;5034649;28;20703;-69
2023/05/02 04:35:18;;;;;;;8.03;7.20;;;;;;;13.29;64.49;97733.63;5032046;28;20207;-70
2023/05/02 04:37:43;;;;;;;7.50;6.80;;;;;;;13.31;64.61;97731.66;5035033;28;20318;-70
2023/05/02 04:40:10;;;;;;;8.13;7.00;;;;;;;13.30;64.72;97730.03;5031172;28;20200;-70
2023/05/02 04:42:35;;;;;;;8.37;7.57;;;;;;;13.34;64.72;97731.38;5035953;28;20191;-70
2023/05/02 04:45:01;;;;;;;8.37;7.50;;;;;;;13.34;64.83;97736.63;5038297;28;20434;-70
2023/05/02 04:47:26;;;;;;;7.43;6.73;;;;;;;13.39;64.93;97732.69;5036552;28;20233;-70
2023/05/02 04:49:52;;;;;;;8.50;7.70;;;;;;;13.36;64.81;97737.28;5036208;28;20250;-70
2023/05/02 04:52:18;;;;;;;7.60;6.80;;;;;;;13.42;64.89;97738.47;5031871;28;20215;-70
2023/05/02 04:54:43;;;;;;;8.67;7.47;;;;;;;13.48;65.16;97743.13;5040493;28;20191;-70
2023/05/02 04:57:09;;;;;;;8.13;7.17;;;;;;;13.52;64.74;97748.91;5028799;28;20294;-70
2023/05/02 04:59:34;;;;;;;10.50;7.57;;;;;;;13.51;64.88;97748.09;5034124;28;20569;-70
2023/05/02 05:02:00;;;;;;;8.70;7.90;;;;;;;13.52;64.63;97744.47;5041848;28;20548;-71
2023/05/02 05:04:26;;;;;;;8.70;7.80;;;;;;;13.55;64.72;97747.75;5029463;28;20329;-71
2023/05/02 05:06:51;;;;;;;11.60;7.40;;;;;;;13.55;64.58;97748.59;5035084;28;20426;-70
2023/05/02 05:09:16;;;;;;;8.93;8.03;;;;;;;13.58;64.44;97752.72;5036613;28;20203;-69
2023/05/02 05:11:42;;;;;;;8.63;7.73;;;;;;;13.61;64.67;97755.03;5034513;28;20196;-70
2023/05/02 05:14:08;;;;;;;10.27;9.27;;;;;;;13.69;64.73;97756.88;5034385;28;20217;-70
2023/05/02 05:16:34;;;;;;;12.60;10.70;;;;;;;13.73;64.77;97759.03;5043411;28;20230;-71
2023/05/02 05:19:00;;;;;;;10.33;9.17;;;;;;;13.79;64.63;97765.47;5038375;28;20442;-72
2023/05/02 05:21:26;;;;;;;12.10;10.80;;;;;;;13.88;64.69;97766.34;5032845;28;20223;-70
2023/05/02 05:23:51;;;;;;;16.23;12.60;;;;;;;13.96;65.01;97772.47;5039395;28;20499;-70
2023/05/02 05:26:17;;;;;;;18.00;14.00;;;;;;;14.06;65.24;97784.69;5042331;28;20202;-70
2023/05/02 05:28:42;;;;;;;13.83;11.10;;;;;;;14.15;65.50;97788.97;5030095;28;20218;-69
2023/05/02 05:31:10;;;;;;;13.13;11.77;;;;;;;14.22;65.59;97790.00;5039799;28;20666;-71
2023/05/02 05:33:37;;;;;;;11.73;9.90;;;;;;;14.32;65.13;97795.09;5029846;28;20281;-70
2023/05/02 05:36:10;;;;;;;12.60;10.33;;;;;;;14.39;64.58;97796.13;5033943;28;20487;-70
2023/05/02 05:38:36;;;;;;;9.30;8.40;;;;;;;14.41;64.35;97806.50;5028933;28;20449;-71
2023/05/02 05:41:02;;;;;;;14.03;8.20;;;;;;;14.41;64.08;97807.34;5030719;28;20499;-71
2023/05/02 05:43:28;;;;;;;10.77;7.80;;;;;;;14.41;63.76;97807.34;5027372;28;20187;-70
2023/05/02 05:45:54;;;;;;;8.63;7.80;;;;;;;14.44;63.64;97811.47;5033305;28;20187;-72
2023/05/02 05:48:19;;;;;;;9.17;8.17;;;;;;;14.44;63.28;97819.38;5030586;28;20985;-70
2023/05/02 05:50:45;;;;;;;8.70;7.67;;;;;;;14.49;63.35;97814.41;5030406;28;20426;-71
2023/05/02 05:53:11;;;;;;;10.13;8.50;;;;;;;14.51;63.35;97816.91;5033447;28;20216;-72
2023/05/02 05:55:37;;;;;;;9.47;8.53;;;;;;;14.52;63.37;97819.38;5027243;28;20252;-69
2023/05/02 05:58:03;;;;;;;10.07;8.87;;;;;;;14.57;63.21;97816.25;5027456;28;20211;-71
2023/05/02 06:00:29;;;;;;;9.70;8.70;;;;;;;14.57;63.06;97825.00;5022905;28;20930;-71
2023/05/02 06:02:54;;;;;;;9.40;8.50;;;;;;;14.59;62.88;97828.31;5024469;28;20466;-70
2023/05/02 06:05:20;;;;;;;9.07;8.17;;;;;;;14.58;62.90;97824.00;5020446;28;20310;-72
2023/05/02 06:07:45;;;;;;;8.57;7.77;;;;;;;14.58;63.00;97829.28;5022738;28;20336;-70
2023/05/02 06:10:11;;;;;;;9.97;8.97;;;;;;;14.59;62.82;97836.22;5037525;28;20192;-70
2023/05/02 06:12:36;;;;;;;11.83;9.17;;;;;;;14.62;62.58;97829.78;5027068;28;20533;-70
2023/05/02 06:15:02;;;;;;;10.53;9.40;;;;;;;14.68;62.76;97836.25;5033040;28;20261;-70
2023/05/02 06:17:27;;;;;;;10.87;9.57;;;;;;;14.74;63.04;97838.25;5028463;28;20219;-70
2023/05/02 06:19:53;;;;;;;20.33;10.13;;;;;;;14.74;62.70;97838.25;5021034;28;20219;-70
2023/05/02 06:22:18;;;;;;;12.57;11.33;;;;;;;14.74;62.23;97846.16;5025508;28;20191;-70
2023/05/02 06:24:43;;;;;;;11.37;10.23;;;;;;;14.74;62.07;97843.53;5026760;28;20733;-71
2023/05/02 06:27:09;;;;;;;14.43;12.93;;;;;;;14.76;62.15;97852.06;5031290;28;20208;-73
2023/05/02 06:29:34;;;;;;;16.33;12.40;;;;;;;14.77;61.97;97852.91;5027529;28;23129;-71
2023/05/02 06:32:00;;;;;;;13.83;11.80;;;;;;;14.79;61.82;97856.22;5032971;28;20227;-72
2023/05/02 06:34:25;;;;;;;13.10;11.70;;;;;;;14.82;61.63;97856.72;5037079;28;20242;-72
2023/05/02 06:36:55;;;;;;;16.70;12.23;;;;;;;14.86;61.45;97860.69;5027673;28;20219;-72
2023/05/02 06:39:20;;;;;;;17.57;12.33;;;;;;;14.93;61.41;97873.22;5032904;28;20571;-69
2023/05/02 06:41:47;;;;;;;13.30;11.90;;;;;;;15.01;61.58;97870.56;5032555;28;20445;-71
2023/05/02 06:44:12;;;;;;;15.17;11.80;;;;;;;15.07;61.00;97871.72;5033337;28;20193;-71
2023/05/02 06:46:38;;;;;;;15.57;12.90;;;;;;;15.13;61.06;97869.25;5033675;28;20430;-71
2023/05/02 06:49:03;;;;;;;22.20;13.27;;;;;;;15.15;61.21;97875.19;5027205;28;20347;-70
2023/05/02 06:51:30;;;;;;;14.00;12.60;;;;;;;15.19;61.24;97879.16;5036193;28;20203;-72
2023/05/02 06:53:55;;;;;;;19.03;13.47;;;;;;;15.23;60.98;97878.84;5031457;28;20330;-71
2023/05/02 06:56:21;;;;;;;16.40;14.80;;;;;;;15.22;60.19;97877.19;5029948;28;21045;-70
2023/05/02 06:58:46;;;;;;;15.90;14.17;;;;;;;15.21;60.18;97876.34;5042027;28;20837;-73
2023/05/02 07:01:12;;;;;;;15.77;14.17;;;;;;;15.27;60.22;97882.78;5034253;28;20200;-71
2023/05/02 07:03:37;;;;;;;19.60;15.10;;;;;;;15.27;60.14;97880.16;5033144;28;20192;-71
2023/05/02 07:06:03;;;;;;;18.20;16.30;;;;;;;15.30;60.22;97895.66;5031887;28;20266;-70
2023/05/02 07:08:28;;;;;;;18.17;16.37;;;;;;;15.33;59.98;97897.97;5032725;28;20219;-70
2023/05/02 07:10:53;;;;;;;19.70;17.57;;;;;;;15.32;59.75;97894.50;5035896;28;20881;-70
2023/05/02 07:13:19;;;;;;;18.07;16.27;;;;;;;15.34;59.70;97897.00;5033097;28;21032;-71
2023/05/02 07:15:44;;;;;;;18.93;16.87;;;;;;;15.31;59.45;97897.31;5038324;28;20224;-70
2023/05/02 07:18:10;;;;;;;20.47;16.37;;;;;;;15.34;59.58;97904.91;5030029;28;20299;-70
2023/05/02 07:20:37;;;;;;;19.63;16.97;;;;;;;15.33;59.72;97906.72;5030333;28;20194;-72
2023/05/02 07:23:03;;;;;;;20.40;18.30;;;;;;;15.33;59.30;97903.25;5040218;28;20226;-71
2023/05/02 07:25:28;;;;;;;26.87;18.20;;;;;;;15.35;59.14;97911.84;5036688;28;20446;-70
2023/05/02 07:28:07;;;;;;;21.50;18.83;;;;;;;15.34;59.16;97923.41;5030608;28;20242;-70
2023/05/02 07:30:32;;;;;;;19.83;17.70;;;;;;;15.36;59.10;97916.16;5036295;28;20200;-70
2023/05/02 07:32:58;;;;;;;21.07;18.77;;;;;;;15.37;59.03;97915.16;5043133;28;20880;-72
2023/05/02 07:35:24;;;;;;;26.33;18.97;;;;;;;15.40;59.11;97917.44;5034022;28;20203;-70
2023/05/02 07:37:49;;;;;;;22.30;19.53;;;;;;;15.47;58.90;97922.88;5042164;28;20260;-71
2023/05/02 07:40:14;;;;;;;26.50;20.03;;;;;;;15.51;58.96;97925.03;5042140;28;20263;-71
2023/05/02 07:42:40;;;;;;;22.47;18.67;;;;;;;15.58;59.38;97913.81;5044271;28;20196;-70
2023/05/02 07:45:07;;;;;;;23.10;20.03;;;;;;;15.60;59.19;97909.19;5034885;28;20196;-71
2023/05/02 07:47:33;;;;;;;21.53;19.27;;;;;;;15.67;59.17;97915.44;5039186;28;20426;-70
2023/05/02 07:49:58;;;;;;;21.00;18.70;;;;;;;15.75;59.12;97918.06;5037837;28;20525;-70
2023/05/02 07:52:25;;;;;;;24.90;21.20;;;;;;;15.82;58.98;97911.13;5039650;28;20286;-71
2023/05/02 07:54:50;;;;;;;26.77;20.43;;;;;;;15.91;58.80;97919.06;5030721;28;20188;-70
2023/05/02 07:57:16;;;;;;;22.13;19.43;;;;;;;15.97;58.44;97921.03;5033691;28;21180;-71
2023/05/02 07:59:42;;;;;;;24.13;19.97;;;;;;;16.01;58.19;97924.97;5029219;28;20736;-71
2023/05/02 08:02:07;;;;;;;29.30;19.97;;;;;;;16.04;57.56;97929.94;5034244;28;20426;-71
2023/05/02 08:04:33;;;;;;;21.70;19.40;;;;;;;16.06;57.38;97927.13;5034540;28;20257;-70
2023/05/02 08:06:59;;;;;;;24.80;20.57;;;;;;;16.06;57.63;97935.06;5043425;28;20537;-72
2023/05/02 08:09:25;;;;;;;27.73;24.33;;;;;;;16.08;57.87;97941.81;5030745;28;20637;-71
2023/05/02 08:11:50;;;;;;;22.57;20.13;;;;;;;16.10;57.88;97942.47;5037745;28;20518;-71
2023/05/02 08:14:16;;;;;;;21.83;19.30;;;;;;;16.12;57.69;97943.16;5031343;28;20192;-71
2023/05/02 08:16:41;;;;;;;24.27;21.30;;;;;;;16.10;56.88;97950.41;5038314;28;20344;-70
2023/05/02 08:19:07;;;;;;;26.03;22.03;;;;;;;16.05;56.74;97949.28;5040407;28;20203;-71
2023/05/02 08:21:32;;;;;;;23.73;21.30;;;;;;;16.02;56.56;97955.72;5036974;28;20261;-71
2023/05/02 08:23:58;;;;;;;32.30;23.57;;;;;;;15.97;57.04;97956.22;5039642;28;20625;-70
2023/05/02 08:26:24;;;;;;;27.03;24.10;;;;;;;15.95;56.96;97963.47;5031596;28;20194;-70
2023/05/02 08:28:53;;;;;;;27.50;23.33;;;;;;;15.92;56.98;97963.00;5037829;28;20590;-70
2023/05/02 08:31:19;;;;;;;32.80;23.13;;;;;;;15.91;57.33;97967.47;5041437;28;20193;-70
2023/05/02 08:33:45;;;;;;;32.00;23.67;;;;;;;15.91;57.50;97971.91;5037645;28;20981;-69
2023/05/02 08:36:12;;;;;;;27.83;23.80;;;;;;;15.96;57.63;97969.63;5046557;28;20398;-69
2023/05/02 08:38:37;;;;;;;30.10;23.70;;;;;;;16.06;57.88;97964.97;5038668;28;20214;-70
2023/05/02 08:41:09;;;;;;;31.33;25.00;;;;;;;16.20;57.53;97960.78;5036890;28;20518;-70
2023/05/02 08:43:34;;;;;;;27.60;23.50;;;;;;;16.35;56.92;97960.91;5035170;28;20207;-70
2023/05/02 08:46:00;;;;;;;26.90;22.40;;;;;;;16.51;56.90;97960.03;5041879;28;20561;-72
2023/05/02 08:48:26;;;;;;;27.73;22.40;;;;;;;16.67;56.43;97960.94;5038035;28;20237;-72
2023/05/02 08:50:52;;;;;;;27.43;23.30;;;;;;;16.80;55.55;97961.22;5030004;28;20196;-71
2023/05/02 08:53:18;;;;;;;28.70;23.03;;;;;;;16.89;54.58;97964.63;5036840;28;20179;-71
2023/05/02 08:55:45;;;;;;;26.73;22.90;;;;;;;17.05;54.52;97961.09;5025662;28;20460;-70
2023/05/02 08:58:10;;;;;;;25.97;21.27;;;;;;;17.25;54.80;97969.41;5031116;28;20282;-70
2023/05/02 09:00:41;;;;;;;31.97;22.43;;;;;;;17.46;53.97;97962.63;5031836;28;20767;-70
2023/05/02 09:03:32;;;;;;;23.23;20.73;;;;;;;17.58;52.75;97969.16;5035300;28;20563;-71
2023/05/02 09:06:15;;;;;;;25.60;18.87;;;;;;;17.74;52.63;97960.22;5028367;28;20813;-71
2023/05/02 09:08:41;;;;;;;20.60;18.40;;;;;;;17.88;52.68;97966.56;5037991;28;20453;-70
2023/05/02 09:11:08;;;;;;;26.70;18.63;;;;;;;17.99;52.15;97970.63;5047749;28;20454;-69
2023/05/02 09:13:36;;;;;;;27.53;20.37;;;;;;;18.06;51.66;97982.19;5028844;28;20491;-71
2023/05/02 09:16:04;;;;;;;28.63;20.47;;;;;;;18.13;51.20;97976.97;5039327;28;20561;-70
2023/05/02 09:18:36;;;;;;;25.87;20.47;;;;;;;18.17;51.36;97969.47;5031102;28;21020;-72
2023/05/02 09:21:07;;;;;;;22.03;19.60;;;;;;;18.24;51.17;97979.16;5032403;28;20426;-71
2023/05/02 09:23:46;;;;;;;21.97;19.00;;;;;;;18.31;50.22;97978.41;5037916;28;20524;-70
2023/05/02 09:26:37;;;;;;;20.83;17.70;;;;;;;18.35;49.65;97977.88;5043788;28;20788;-70
2023/05/02 09:29:03;;;;;;;22.40;16.77;;;;;;;18.29;48.83;97981.28;5033207;28;20444;-71
2023/05/02 09:31:36;;;;;;;22.50;17.47;;;;;;;18.27;48.37;97973.47;5039448;28;20488;-72
2023/05/02 09:34:12;;;;;;;18.47;15.20;;;;;;;18.25;48.21;97978.16;5032868;28;20466;-73
2023/05/02 09:36:52;;;;;;;20.70;17.53;;;;;;;18.27;48.70;97973.47;5038239;28;20457;-71
2023/05/02 09:39:27;;;;;;;20.60;17.20;;;;;;;18.33;48.89;97982.56;5033042;28;20506;-72
2023/05/02 09:41:53;;;;;;;28.57;18.07;;;;;;;18.39;48.79;97981.81;5027113;28;20533;-71
2023/05/02 09:44:21;;;;;;;23.40;17.90;;;;;;;18.47;49.06;97972.94;5037372;28;20532;-73
2023/05/02 09:46:51;;;;;;;25.33;18.13;;;;;;;18.52;49.04;97981.19;5034605;28;20215;-71
2023/05/02 09:49:18;;;;;;;20.83;18.10;;;;;;;18.64;49.08;97981.53;5044497;28;20448;-73
2023/05/02 09:51:45;;;;;;;24.23;18.97;;;;;;;18.85;48.17;97975.44;5032565;28;20454;-72
2023/05/02 09:54:11;;;;;;;22.70;18.13;;;;;;;19.13;48.11;97972.09;5040041;28;20415;-71
2023/05/02 09:56:56;;;;;;;22.10;18.87;;;;;;;19.58;45.84;97965.75;5037069;28;20960;-70
2023/05/02 09:59:21;;;;;;;22.83;18.90;;;;;;;20.01;45.48;97971.03;5031849;28;20457;-69
2023/05/02 10:01:55;;;;;;;18.40;16.40;;;;;;;20.38;45.89;97969.00;5031292;28;20461;-71
2023/05/02 10:04:20;;;;;;;20.70;17.47;;;;;;;20.55;44.81;97968.66;5032286;28;20645;-71
2023/05/02 10:06:47;;;;;;;20.53;17.67;;;;;;;20.66;44.39;97962.78;5030059;28;20445;-71
2023/05/02 10:09:13;;;;;;;17.87;16.00;;;;;;;20.95;44.49;97979.50;5031339;28;20555;-71
2023/05/02 10:11:41;;;;;;;19.70;16.80;;;;;;;21.00;43.51;97977.06;5027251;28;20433;-71
2023/05/02 10:14:10;;;;;;;20.33;18.03;;;;;;;20.99;42.54;97979.91;5028236;28;20804;-74
2023/05/02 10:16:37;;;;;;;21.57;17.10;;;;;;;20.99;41.50;97980.75;5036958;28;20477;-71
2023/05/02 10:19:19;;;;;;;18.63;16.33;;;;;;;20.88;41.77;97989.31;5037216;28;20815;-70
2023/05/02 10:21:45;;;;;;;19.23;17.27;;;;;;;20.68;42.32;97987.34;5029867;28;21251;-70
2023/05/02 10:24:11;;;;;;;20.13;17.30;;;;;;;20.45;42.35;97989.50;5036498;28;20582;-71
2023/05/02 10:26:37;;;;;;;23.57;16.80;;;;;;;20.49;42.60;97990.75;5031788;28;20422;-71
2023/05/02 10:29:03;;;;;;;18.90;16.63;;;;;;;20.51;42.56;97983.41;5032589;28;20449;-71
2023/05/02 10:31:32;;;;;;;20.40;16.03;;;;;;;20.52;42.05;97985.84;5040514;28;20806;-73
2023/05/02 10:33:58;;;;;;;17.63;15.37;;;;;;;20.86;42.54;97980.69;5034362;28;20195;-72
2023/05/02 10:36:24;;;;;;;16.00;14.37;;;;;;;21.31;41.27;97982.88;5046734;28;20580;-71
2023/05/02 10:38:50;;;;;;;17.27;12.90;;;;;;;21.72;39.88;97975.75;5040970;28;20585;-72
2023/05/02 10:41:18;;;;;;;16.07;13.77;;;;;;;22.14;39.73;97963.00;5041515;28;20680;-69
2023/05/02 10:43:48;;;;;;;17.40;12.27;;;;;;;22.58;38.33;97970.47;5032328;28;20219;-71
2023/05/02 10:46:33;;;;;;;13.17;11.77;;;;;;;23.01;37.18;97973.38;5040749;28;20418;-71
2023/05/02 10:49:00;;;;;;;13.63;11.70;;;;;;;23.05;35.25;97970.25;5035528;28;20472;-72
2023/05/02 10:51:30;;;;;;;12.90;11.37;;;;;;;22.80;35.27;97966.50;5038473;28;20465;-72
2023/05/02 10:54:14;;;;;;;12.13;10.93;;;;;;;22.53;36.43;97953.25;5045192;28;20430;-71
2023/05/02 10:56:58;;;;;;;13.70;12.20;;;;;;;22.22;35.53;97959.28;5038596;28;20472;-71
2023/05/02 10:59:26;;;;;;;15.90;11.97;;;;;;;22.21;36.48;97954.97;5037891;28;20473;-71
2023/05/02 11:01:51;;;;;;;13.87;11.07;;;;;;;22.35;35.84;97961.06;5036295;28;20481;-70
2023/05/02 11:04:17;;;;;;;15.37;11.00;;;;;;;22.72;37.02;97958.72;5036835;28;20426;-72
2023/05/02 11:07:03;;;;;;;11.70;10.50;;;;;;;22.98;36.16;97955.09;5040838;28;20191;-71
2023/05/02 11:09:31;;;;;;;11.97;10.73;;;;;;;23.02;34.95;97945.59;5044928;28;20301;-70
2023/05/02 11:11:56;;;;;;;10.80;9.70;;;;;;;22.88;35.21;97953.91;5026006;28;20962;-70
2023/05/02 11:14:25;;;;;;;13.43;11.70;;;;;;;22.71;34.79;97951.72;5031435;28;20473;-72
2023/05/02 11:16:59;;;;;;;13.03;11.17;;;;;;;22.50;34.64;97955.50;5038220;28;20826;-71
2023/05/02 11:19:26;;;;;;;15.87;11.70;;;;;;;22.34;35.42;97943.41;5046610;28;20444;-71
2023/05/02 11:21:52;;;;;;;13.40;12.00;;;;;;;22.15;35.83;97961.97;5040758;28;20910;-71
2023/05/02 11:24:43;;;;;;;13.87;12.47;;;;;;;21.84;37.41;97958.09;5022978;28;20436;-70
2023/05/02 11:27:27;;;;;;;21.23;13.57;;;;;;;21.69;37.39;97968.16;5038776;28;20442;-72